sensor_id;sensor_type;location;lat;lon;timestamp;pressure;altitude;pressure_sealevel;temperature
64296;BMP280;51082;38.236;15.432;2023-01-15T00:00:55;101858.56;;;15.58
64296;BMP280;51082;38.236;15.432;2023-01-15T00:01:57;101853.53;;;15.63
64296;BMP280;51082;38.236;15.432;2023-01-15T00:02:58;101850.75;;;15.65
64296;BMP280;51082;38.236;15.432;2023-01-15T00:04:02;101849.75;;;15.66
64296;BMP280;51082;38.236;15.432;2023-01-15T00:05:04;101847.31;;;15.64
64296;BMP280;51082;38.236;15.432;2023-01-15T00:06:06;101855.34;;;15.63
64296;BMP280;51082;38.236;15.432;2023-01-15T00:07:07;101852.72;;;15.63
64296;BMP280;51082;38.236;15.432;2023-01-15T00:08:10;101858.63;;;15.65
64296;BMP280;51082;38.236;15.432;2023-01-15T00:09:12;101844.72;;;15.71
64296;BMP280;51082;38.236;15.432;2023-01-15T00:10:15;101860.69;;;15.76
64296;BMP280;51082;38.236;15.432;2023-01-15T00:11:16;101864.91;;;15.77
64296;BMP280;51082;38.236;15.432;2023-01-15T00:12:19;101867.13;;;15.73
64296;BMP280;51082;38.236;15.432;2023-01-15T00:13:20;101859.44;;;15.72
64296;BMP280;51082;38.236;15.432;2023-01-15T00:14:22;101862.09;;;15.72
64296;BMP280;51082;38.236;15.432;2023-01-15T00:15:25;101858.66;;;15.71
64296;BMP280;51082;38.236;15.432;2023-01-15T00:16:27;101865.94;;;15.76
64296;BMP280;51082;38.236;15.432;2023-01-15T00:17:30;101861.03;;;15.73
64296;BMP280;51082;38.236;15.432;2023-01-15T00:18:32;101861.03;;;15.66
64296;BMP280;51082;38.236;15.432;2023-01-15T00:19:33;101853.94;;;15.67
64296;BMP280;51082;38.236;15.432;2023-01-15T00:20:35;101850.56;;;15.66
64296;BMP280;51082;38.236;15.432;2023-01-15T00:21:37;101842.88;;;15.65
64296;BMP280;51082;38.236;15.432;2023-01-15T00:22:39;101851.72;;;15.64
64296;BMP280;51082;38.236;15.432;2023-01-15T00:23:40;101851.31;;;15.67
64296;BMP280;51082;38.236;15.432;2023-01-15T00:24:59;101852.59;;;15.71
64296;BMP280;51082;38.236;15.432;2023-01-15T00:26:19;101865.47;;;15.72
64296;BMP280;51082;38.236;15.432;2023-01-15T00:27:38;101857.84;;;15.71
64296;BMP280;51082;38.236;15.432;2023-01-15T00:28:42;101853.16;;;15.73
64296;BMP280;51082;38.236;15.432;2023-01-15T00:29:43;101850.19;;;15.76
64296;BMP280;51082;38.236;15.432;2023-01-15T00:30:46;101851.78;;;15.77
64296;BMP280;51082;38.236;15.432;2023-01-15T00:31:51;101858.47;;;15.79
64296;BMP280;51082;38.236;15.432;2023-01-15T00:32:54;101849.38;;;15.75
64296;BMP280;51082;38.236;15.432;2023-01-15T00:33:56;101851.56;;;15.72
64296;BMP280;51082;38.236;15.432;2023-01-15T00:34:58;101848.69;;;15.67
64296;BMP280;51082;38.236;15.432;2023-01-15T00:36:00;101842.09;;;15.71
64296;BMP280;51082;38.236;15.432;2023-01-15T00:37:01;101854.59;;;15.69
64296;BMP280;51082;38.236;15.432;2023-01-15T00:38:03;101850.97;;;15.70
64296;BMP280;51082;38.236;15.432;2023-01-15T00:39:05;101855.56;;;15.68
64296;BMP280;51082;38.236;15.432;2023-01-15T00:40:08;101865.91;;;15.69
64296;BMP280;51082;38.236;15.432;2023-01-15T00:41:11;101857.22;;;15.69
64296;BMP280;51082;38.236;15.432;2023-01-15T00:42:12;101857.84;;;15.71
64296;BMP280;51082;38.236;15.432;2023-01-15T00:43:15;101858.19;;;15.68
64296;BMP280;51082;38.236;15.432;2023-01-15T00:44:17;101859.66;;;15.70
64296;BMP280;51082;38.236;15.432;2023-01-15T00:45:19;101856.00;;;15.65
64296;BMP280;51082;38.236;15.432;2023-01-15T00:46:23;101857.41;;;15.60
64296;BMP280;51082;38.236;15.432;2023-01-15T00:47:24;101855.94;;;15.58
64296;BMP280;51082;38.236;15.432;2023-01-15T00:48:26;101855.34;;;15.63
64296;BMP280;51082;38.236;15.432;2023-01-15T00:49:28;101862.19;;;15.57
64296;BMP280;51082;38.236;15.432;2023-01-15T00:50:30;101858.16;;;15.54
64296;BMP280;51082;38.236;15.432;2023-01-15T00:51:31;101864.19;;;15.55
64296;BMP280;51082;38.236;15.432;2023-01-15T00:52:33;101866.84;;;15.61
64296;BMP280;51082;38.236;15.432;2023-01-15T00:53:35;101857.16;;;15.62
64296;BMP280;51082;38.236;15.432;2023-01-15T00:54:37;101861.00;;;15.59
64296;BMP280;51082;38.236;15.432;2023-01-15T00:55:38;101864.63;;;15.58
64296;BMP280;51082;38.236;15.432;2023-01-15T00:56:41;101859.38;;;15.58
64296;BMP280;51082;38.236;15.432;2023-01-15T00:57:42;101860.56;;;15.56
64296;BMP280;51082;38.236;15.432;2023-01-15T00:58:44;101860.38;;;15.57
64296;BMP280;51082;38.236;15.432;2023-01-15T00:59:47;101861.84;;;15.60
64296;BMP280;51082;38.236;15.432;2023-01-15T01:00:51;101871.88;;;15.56
64296;BMP280;51082;38.236;15.432;2023-01-15T01:01:55;101869.47;;;15.61
64296;BMP280;51082;38.236;15.432;2023-01-15T01:02:57;101867.31;;;15.65
64296;BMP280;51082;38.236;15.432;2023-01-15T01:03:58;101871.31;;;15.68
64296;BMP280;51082;38.236;15.432;2023-01-15T01:05:00;101862.63;;;15.67
64296;BMP280;51082;38.236;15.432;2023-01-15T01:06:02;101862.06;;;15.65
64296;BMP280;51082;38.236;15.432;2023-01-15T01:07:04;101868.31;;;15.64
64296;BMP280;51082;38.236;15.432;2023-01-15T01:08:06;101868.34;;;15.71
64296;BMP280;51082;38.236;15.432;2023-01-15T01:09:09;101873.59;;;15.71
64296;BMP280;51082;38.236;15.432;2023-01-15T01:10:11;101872.97;;;15.69
64296;BMP280;51082;38.236;15.432;2023-01-15T01:11:13;101878.03;;;15.70
64296;BMP280;51082;38.236;15.432;2023-01-15T01:12:16;101887.28;;;15.73
64296;BMP280;51082;38.236;15.432;2023-01-15T01:13:17;101875.63;;;15.75
64296;BMP280;51082;38.236;15.432;2023-01-15T01:14:19;101870.19;;;15.77
64296;BMP280;51082;38.236;15.432;2023-01-15T01:15:21;101871.97;;;15.70
64296;BMP280;51082;38.236;15.432;2023-01-15T01:16:24;101872.31;;;15.67
64296;BMP280;51082;38.236;15.432;2023-01-15T01:17:28;101874.41;;;15.71
64296;BMP280;51082;38.236;15.432;2023-01-15T01:18:29;101880.00;;;15.68
64296;BMP280;51082;38.236;15.432;2023-01-15T01:19:31;101878.38;;;15.67
64296;BMP280;51082;38.236;15.432;2023-01-15T01:20:33;101870.16;;;15.70
64296;BMP280;51082;38.236;15.432;2023-01-15T01:21:35;101868.69;;;15.68
64296;BMP280;51082;38.236;15.432;2023-01-15T01:22:37;101870.75;;;15.66
64296;BMP280;51082;38.236;15.432;2023-01-15T01:23:40;101870.34;;;15.69
64296;BMP280;51082;38.236;15.432;2023-01-15T01:24:41;101873.94;;;15.68
64296;BMP280;51082;38.236;15.432;2023-01-15T01:25:44;101878.97;;;15.63
64296;BMP280;51082;38.236;15.432;2023-01-15T01:26:45;101875.75;;;15.60
64296;BMP280;51082;38.236;15.432;2023-01-15T01:27:48;101876.00;;;15.66
64296;BMP280;51082;38.236;15.432;2023-01-15T01:28:49;101867.94;;;15.74
64296;BMP280;51082;38.236;15.432;2023-01-15T01:29:52;101873.22;;;15.80
64296;BMP280;51082;38.236;15.432;2023-01-15T01:30:53;101873.63;;;15.84
64296;BMP280;51082;38.236;15.432;2023-01-15T01:31:55;101870.41;;;15.82
64296;BMP280;51082;38.236;15.432;2023-01-15T01:32:58;101868.78;;;15.81
64296;BMP280;51082;38.236;15.432;2023-01-15T01:34:00;101876.88;;;15.86
64296;BMP280;51082;38.236;15.432;2023-01-15T01:35:01;101869.78;;;15.80
64296;BMP280;51082;38.236;15.432;2023-01-15T01:36:04;101866.34;;;15.79
64296;BMP280;51082;38.236;15.432;2023-01-15T01:37:05;101870.94;;;15.77
64296;BMP280;51082;38.236;15.432;2023-01-15T01:38:07;101874.84;;;15.81
64296;BMP280;51082;38.236;15.432;2023-01-15T01:39:11;101873.00;;;15.82
64296;BMP280;51082;38.236;15.432;2023-01-15T01:40:14;101867.34;;;15.78
64296;BMP280;51082;38.236;15.432;2023-01-15T01:41:16;101867.34;;;15.78
64296;BMP280;51082;38.236;15.432;2023-01-15T01:42:17;101873.41;;;15.79
64296;BMP280;51082;38.236;15.432;2023-01-15T01:43:20;101871.59;;;15.79
64296;BMP280;51082;38.236;15.432;2023-01-15T01:45:42;101868.78;;;15.81
64296;BMP280;51082;38.236;15.432;2023-01-15T01:46:43;101874.41;;;15.78
64296;BMP280;51082;38.236;15.432;2023-01-15T01:47:45;101877.66;;;15.80
64296;BMP280;51082;38.236;15.432;2023-01-15T01:48:48;101872.59;;;15.78
64296;BMP280;51082;38.236;15.432;2023-01-15T01:49:52;101874.03;;;15.81
64296;BMP280;51082;38.236;15.432;2023-01-15T01:50:54;101880.09;;;15.81
64296;BMP280;51082;38.236;15.432;2023-01-15T01:51:58;101872.81;;;15.77
64296;BMP280;51082;38.236;15.432;2023-01-15T01:53:01;101867.94;;;15.74
64296;BMP280;51082;38.236;15.432;2023-01-15T01:54:04;101873.19;;;15.74
64296;BMP280;51082;38.236;15.432;2023-01-15T01:55:07;101869.94;;;15.72
64296;BMP280;51082;38.236;15.432;2023-01-15T01:56:10;101866.72;;;15.70
64296;BMP280;51082;38.236;15.432;2023-01-15T01:57:11;101869.16;;;15.71
64296;BMP280;51082;38.236;15.432;2023-01-15T01:58:14;101870.56;;;15.74
64296;BMP280;51082;38.236;15.432;2023-01-15T01:59:17;101868.34;;;15.71
64296;BMP280;51082;38.236;15.432;2023-01-15T02:00:20;101865.72;;;15.71
64296;BMP280;51082;38.236;15.432;2023-01-15T02:01:23;101867.06;;;15.67
64296;BMP280;51082;38.236;15.432;2023-01-15T02:02:26;101861.81;;;15.67
64296;BMP280;51082;38.236;15.432;2023-01-15T02:03:29;101858.97;;;15.61
64296;BMP280;51082;38.236;15.432;2023-01-15T02:04:33;101864.03;;;15.63
64296;BMP280;51082;38.236;15.432;2023-01-15T02:05:37;101862.66;;;15.60
64296;BMP280;51082;38.236;15.432;2023-01-15T02:06:40;101861.00;;;15.59
64296;BMP280;51082;38.236;15.432;2023-01-15T02:07:42;101857.16;;;15.62
64296;BMP280;51082;38.236;15.432;2023-01-15T02:08:44;101863.22;;;15.63
64296;BMP280;51082;38.236;15.432;2023-01-15T02:09:45;101855.75;;;15.59
64296;BMP280;51082;38.236;15.432;2023-01-15T02:10:49;101858.97;;;15.61
64296;BMP280;51082;38.236;15.432;2023-01-15T02:11:51;101858.16;;;15.54
64296;BMP280;51082;38.236;15.432;2023-01-15T02:12:57;101856.72;;;15.52
64296;BMP280;51082;38.236;15.432;2023-01-15T02:14:03;101861.78;;;15.53
64296;BMP280;51082;38.236;15.432;2023-01-15T02:15:07;101855.31;;;15.49
64296;BMP280;51082;38.236;15.432;2023-01-15T02:16:13;101867.81;;;15.47
64296;BMP280;51082;38.236;15.432;2023-01-15T02:17:18;101864.19;;;15.48
64296;BMP280;51082;38.236;15.432;2023-01-15T02:18:21;101867.00;;;15.47
64296;BMP280;51082;38.236;15.432;2023-01-15T02:19:27;101864.53;;;15.45
64296;BMP280;51082;38.236;15.432;2023-01-15T02:20:32;101870.44;;;15.47
64296;BMP280;51082;38.236;15.432;2023-01-15T02:21:40;101866.56;;;15.43
64296;BMP280;51082;38.236;15.432;2023-01-15T02:22:46;101865.78;;;15.43
64296;BMP280;51082;38.236;15.432;2023-01-15T02:24:03;101869.41;;;15.42
64296;BMP280;51082;38.236;15.432;2023-01-15T02:25:06;101867.38;;;15.44
64296;BMP280;51082;38.236;15.432;2023-01-15T02:26:18;101875.25;;;15.44
64296;BMP280;51082;38.236;15.432;2023-01-15T02:27:25;101878.47;;;15.46
64296;BMP280;51082;38.236;15.432;2023-01-15T02:28:29;101872.63;;;15.50
64296;BMP280;51082;38.236;15.432;2023-01-15T02:29:36;101872.84;;;15.49
64296;BMP280;51082;38.236;15.432;2023-01-15T02:30:41;101877.88;;;15.50
64296;BMP280;51082;38.236;15.432;2023-01-15T02:31:42;101873.47;;;15.51
64296;BMP280;51082;38.236;15.432;2023-01-15T02:32:50;101868.41;;;15.49
64296;BMP280;51082;38.236;15.432;2023-01-15T02:33:55;101867.81;;;15.47
64296;BMP280;51082;38.236;15.432;2023-01-15T02:34:58;101869.78;;;15.45
64296;BMP280;51082;38.236;15.432;2023-01-15T02:36:03;101867.00;;;15.47
64296;BMP280;51082;38.236;15.432;2023-01-15T02:37:07;101866.56;;;15.43
64296;BMP280;51082;38.236;15.432;2023-01-15T02:38:12;101879.03;;;15.41
64296;BMP280;51082;38.236;15.432;2023-01-15T02:39:14;101873.81;;;15.41
64296;BMP280;51082;38.236;15.432;2023-01-15T02:40:17;101870.19;;;15.42
64296;BMP280;51082;38.236;15.432;2023-01-15T02:41:20;101877.06;;;15.43
64296;BMP280;51082;38.236;15.432;2023-01-15T02:42:23;101877.06;;;15.43
64296;BMP280;51082;38.236;15.432;2023-01-15T02:43:27;101866.34;;;15.45
64296;BMP280;51082;38.236;15.432;2023-01-15T02:44:31;101868.31;;;15.36
64296;BMP280;51082;38.236;15.432;2023-01-15T02:45:36;101869.34;;;15.35
64296;BMP280;51082;38.236;15.432;2023-01-15T02:46:39;101866.50;;;15.37
64296;BMP280;51082;38.236;15.432;2023-01-15T02:47:41;101866.94;;;15.40
64296;BMP280;51082;38.236;15.432;2023-01-15T02:48:45;101867.94;;;15.39
64296;BMP280;51082;38.236;15.432;2023-01-15T02:49:46;101864.97;;;15.42
64296;BMP280;51082;38.236;15.432;2023-01-15T02:50:51;101858.06;;;15.41
64296;BMP280;51082;38.236;15.432;2023-01-15T02:51:54;101858.91;;;15.42
64296;BMP280;51082;38.236;15.432;2023-01-15T02:52:59;101851.84;;;15.42
64296;BMP280;51082;38.236;15.432;2023-01-15T02:54:04;101863.31;;;15.41
64296;BMP280;51082;38.236;15.432;2023-01-15T02:55:08;101853.47;;;15.43
64296;BMP280;51082;38.236;15.432;2023-01-15T02:56:12;101855.28;;;15.43
64296;BMP280;51082;38.236;15.432;2023-01-15T02:57:15;101856.44;;;15.40
64296;BMP280;51082;38.236;15.432;2023-01-15T02:58:19;101850.19;;;15.41
64296;BMP280;51082;38.236;15.432;2023-01-15T02:59:25;101861.69;;;15.40
64296;BMP280;51082;38.236;15.432;2023-01-15T03:00:28;101863.06;;;15.36
64296;BMP280;51082;38.236;15.432;2023-01-15T03:01:31;101866.09;;;15.33
64296;BMP280;51082;38.236;15.432;2023-01-15T03:02:34;101855.03;;;15.38
64296;BMP280;51082;38.236;15.432;2023-01-15T03:03:39;101851.59;;;15.37
64296;BMP280;51082;38.236;15.432;2023-01-15T03:04:43;101862.06;;;15.37
64296;BMP280;51082;38.236;15.432;2023-01-15T03:05:47;101858.84;;;15.35
64296;BMP280;51082;38.236;15.432;2023-01-15T03:06:51;101860.47;;;15.36
64296;BMP280;51082;38.236;15.432;2023-01-15T03:07:57;101853.81;;;15.40
64296;BMP280;51082;38.236;15.432;2023-01-15T03:08:59;101855.22;;;15.36
64296;BMP280;51082;38.236;15.432;2023-01-15T03:10:02;101854.81;;;15.39
64296;BMP280;51082;38.236;15.432;2023-01-15T03:11:06;101857.66;;;15.38
64296;BMP280;51082;38.236;15.432;2023-01-15T03:12:13;101851.59;;;15.37
64296;BMP280;51082;38.236;15.432;2023-01-15T03:13:15;101860.66;;;15.35
64296;BMP280;51082;38.236;15.432;2023-01-15T03:14:19;101862.84;;;15.31
64296;BMP280;51082;38.236;15.432;2023-01-15T03:15:23;101860.66;;;15.35
64296;BMP280;51082;38.236;15.432;2023-01-15T03:16:40;101852.41;;;15.38
64296;BMP280;51082;38.236;15.432;2023-01-15T03:17:47;101850.97;;;15.35
64296;BMP280;51082;38.236;15.432;2023-01-15T03:18:51;101857.59;;;15.31
64296;BMP280;51082;38.236;15.432;2023-01-15T03:19:55;101856.78;;;15.30
64296;BMP280;51082;38.236;15.432;2023-01-15T03:20:59;101857.81;;;15.29
64296;BMP280;51082;38.236;15.432;2023-01-15T03:22:04;101864.66;;;15.30
64296;BMP280;51082;38.236;15.432;2023-01-15T03:23:08;101849.53;;;15.33
64296;BMP280;51082;38.236;15.432;2023-01-15T03:24:10;101851.97;;;15.34
64296;BMP280;51082;38.236;15.432;2023-01-15T03:25:14;101852.78;;;15.35
64296;BMP280;51082;38.236;15.432;2023-01-15T03:26:18;101856.59;;;15.32
64296;BMP280;51082;38.236;15.432;2023-01-15T03:27:19;101860.22;;;15.31
64296;BMP280;51082;38.236;15.432;2023-01-15T03:28:22;101864.88;;;15.29
64296;BMP280;51082;38.236;15.432;2023-01-15T03:29:26;101859.22;;;15.32
64296;BMP280;51082;38.236;15.432;2023-01-15T03:30:31;101857.97;;;15.28
64296;BMP280;51082;38.236;15.432;2023-01-15T03:31:33;101855.97;;;15.30
64296;BMP280;51082;38.236;15.432;2023-01-15T03:32:36;101862.84;;;15.31
64296;BMP280;51082;38.236;15.432;2023-01-15T03:33:38;101860.84;;;15.33
64296;BMP280;51082;38.236;15.432;2023-01-15T03:34:41;101859.22;;;15.32
64296;BMP280;51082;38.236;15.432;2023-01-15T03:35:43;101847.72;;;15.33
64296;BMP280;51082;38.236;15.432;2023-01-15T03:36:46;101853.97;;;15.32
64296;BMP280;51082;38.236;15.432;2023-01-15T03:37:47;101854.38;;;15.29
64296;BMP280;51082;38.236;15.432;2023-01-15T03:38:50;101847.47;;;15.28
64296;BMP280;51082;38.236;15.432;2023-01-15T03:39:52;101858.19;;;15.26
64296;BMP280;51082;38.236;15.432;2023-01-15T03:40:58;101851.13;;;15.27
64296;BMP280;51082;38.236;15.432;2023-01-15T03:42:05;101850.09;;;15.28
64296;BMP280;51082;38.236;15.432;2023-01-15T03:43:10;101856.75;;;15.24
64296;BMP280;51082;38.236;15.432;2023-01-15T03:44:34;101853.13;;;15.25
64296;BMP280;51082;38.236;15.432;2023-01-15T03:45:41;101843.06;;;15.28
64296;BMP280;51082;38.236;15.432;2023-01-15T03:48:04;101856.75;;;15.24
64296;BMP280;51082;38.236;15.432;2023-01-15T03:49:10;101853.13;;;15.25
64296;BMP280;51082;38.236;15.432;2023-01-15T03:50:20;101851.31;;;15.25
64296;BMP280;51082;38.236;15.432;2023-01-15T03:51:27;101854.38;;;15.29
64296;BMP280;51082;38.236;15.432;2023-01-15T03:52:34;101854.75;;;15.26
64296;BMP280;51082;38.236;15.432;2023-01-15T03:53:37;101856.38;;;15.27
64296;BMP280;51082;38.236;15.432;2023-01-15T03:54:43;101858.38;;;15.25
64296;BMP280;51082;38.236;15.432;2023-01-15T03:55:49;101857.34;;;15.19
64296;BMP280;51082;38.236;15.432;2023-01-15T03:56:55;101861.59;;;15.20
64296;BMP280;51082;38.236;15.432;2023-01-15T03:57:59;101858.72;;;15.15
64296;BMP280;51082;38.236;15.432;2023-01-15T03:59:03;101855.06;;;15.16
64296;BMP280;51082;38.236;15.432;2023-01-15T04:00:07;101856.50;;;15.19
64296;BMP280;51082;38.236;15.432;2023-01-15T04:01:12;101858.16;;;15.20
64296;BMP280;51082;38.236;15.432;2023-01-15T04:02:14;101858.31;;;15.18
64296;BMP280;51082;38.236;15.432;2023-01-15T04:03:19;101858.75;;;15.22
64296;BMP280;51082;38.236;15.432;2023-01-15T04:04:22;101866.59;;;15.22
64296;BMP280;51082;38.236;15.432;2023-01-15T04:05:24;101850.28;;;15.20
64296;BMP280;51082;38.236;15.432;2023-01-15T04:06:28;101856.13;;;15.22
64296;BMP280;51082;38.236;15.432;2023-01-15T04:07:29;101854.53;;;15.21
64296;BMP280;51082;38.236;15.432;2023-01-15T04:08:33;101849.47;;;15.19
64296;BMP280;51082;38.236;15.432;2023-01-15T04:09:36;101856.50;;;15.19
64296;BMP280;51082;38.236;15.432;2023-01-15T04:10:49;101852.72;;;15.21
64296;BMP280;51082;38.236;15.432;2023-01-15T04:11:51;101851.03;;;15.14
64296;BMP280;51082;38.236;15.432;2023-01-15T04:12:52;101858.28;;;15.12
64296;BMP280;51082;38.236;15.432;2023-01-15T04:13:55;101861.50;;;15.14
64296;BMP280;51082;38.236;15.432;2023-01-15T04:14:56;101853.84;;;15.12
64296;BMP280;51082;38.236;15.432;2023-01-15T04:15:58;101854.03;;;15.11
64296;BMP280;51082;38.236;15.432;2023-01-15T04:17:01;101846.56;;;15.08
64296;BMP280;51082;38.236;15.432;2023-01-15T04:18:03;101854.22;;;15.09
64296;BMP280;51082;38.236;15.432;2023-01-15T04:19:05;101854.41;;;15.08
64296;BMP280;51082;38.236;15.432;2023-01-15T04:20:07;101852.00;;;15.06
64296;BMP280;51082;38.236;15.432;2023-01-15T04:21:10;101850.19;;;15.07
64296;BMP280;51082;38.236;15.432;2023-01-15T04:22:11;101847.16;;;15.10
64296;BMP280;51082;38.236;15.432;2023-01-15T04:23:14;101847.44;;;15.15
64296;BMP280;51082;38.236;15.432;2023-01-15T04:24:15;101846.22;;;15.17
64296;BMP280;51082;38.236;15.432;2023-01-15T04:25:17;101850.50;;;15.25
64296;BMP280;51082;38.236;15.432;2023-01-15T04:26:18;101842.00;;;15.23
64296;BMP280;51082;38.236;15.432;2023-01-15T04:27:21;101846.06;;;15.25
64296;BMP280;51082;38.236;15.432;2023-01-15T04:28:22;101854.75;;;15.26
64296;BMP280;51082;38.236;15.432;2023-01-15T04:29:24;101849.50;;;15.26
64296;BMP280;51082;38.236;15.432;2023-01-15T04:30:25;101847.06;;;15.24
64296;BMP280;51082;38.236;15.432;2023-01-15T04:31:28;101849.88;;;15.23
64296;BMP280;51082;38.236;15.432;2023-01-15T04:32:33;101843.00;;;15.22
64296;BMP280;51082;38.236;15.432;2023-01-15T04:33:35;101841.59;;;15.19
64296;BMP280;51082;38.236;15.432;2023-01-15T04:34:37;101845.84;;;15.20
64296;BMP280;51082;38.236;15.432;2023-01-15T04:35:39;101845.03;;;15.20
64296;BMP280;51082;38.236;15.432;2023-01-15T04:36:40;101842.22;;;15.21
64296;BMP280;51082;38.236;15.432;2023-01-15T04:37:46;101849.88;;;15.23
64296;BMP280;51082;38.236;15.432;2023-01-15T04:38:47;101840.63;;;15.27
64296;BMP280;51082;38.236;15.432;2023-01-15T04:39:50;101841.84;;;15.24
64296;BMP280;51082;38.236;15.432;2023-01-15T04:40:51;101850.09;;;15.21
64296;BMP280;51082;38.236;15.432;2023-01-15T04:42:10;101847.00;;;15.18
64296;BMP280;51082;38.236;15.432;2023-01-15T04:43:30;101847.59;;;15.13
64296;BMP280;51082;38.236;15.432;2023-01-15T04:45:01;101848.53;;;15.06
64296;BMP280;51082;38.236;15.432;2023-01-15T04:46:03;101849.69;;;14.96
64296;BMP280;51082;38.236;15.432;2023-01-15T04:47:05;101850.63;;;14.89
64296;BMP280;51082;38.236;15.432;2023-01-15T04:48:09;101845.31;;;14.82
64296;BMP280;51082;38.236;15.432;2023-01-15T04:49:11;101851.56;;;14.75
64296;BMP280;51082;38.236;15.432;2023-01-15T04:50:14;101850.84;;;14.66
64296;BMP280;51082;38.236;15.432;2023-01-15T04:51:15;101854.84;;;14.62
64296;BMP280;51082;38.236;15.432;2023-01-15T04:52:17;101848.34;;;14.58
64296;BMP280;51082;38.236;15.432;2023-01-15T04:53:19;101857.34;;;14.49
64296;BMP280;51082;38.236;15.432;2023-01-15T04:54:21;101858.25;;;14.41
64296;BMP280;51082;38.236;15.432;2023-01-15T04:55:22;101858.81;;;14.36
64296;BMP280;51082;38.236;15.432;2023-01-15T04:56:24;101855.13;;;14.31
64296;BMP280;51082;38.236;15.432;2023-01-15T04:57:26;101858.84;;;14.22
64296;BMP280;51082;38.236;15.432;2023-01-15T04:58:28;101851.28;;;14.12
64296;BMP280;51082;38.236;15.432;2023-01-15T04:59:29;101856.00;;;14.02
64296;BMP280;51082;38.236;15.432;2023-01-15T05:00:31;101851.28;;;13.97
64296;BMP280;51082;38.236;15.432;2023-01-15T05:01:32;101862.25;;;13.86
64296;BMP280;51082;38.236;15.432;2023-01-15T05:02:35;101862.69;;;13.75
64296;BMP280;51082;38.236;15.432;2023-01-15T05:03:38;101866.03;;;13.69
64296;BMP280;51082;38.236;15.432;2023-01-15T05:04:40;101858.38;;;13.67
64296;BMP280;51082;38.236;15.432;2023-01-15T05:05:42;101864.56;;;13.66
64296;BMP280;51082;38.236;15.432;2023-01-15T05:06:43;101863.66;;;13.59
64296;BMP280;51082;38.236;15.432;2023-01-15T05:07:45;101852.41;;;13.59
64296;BMP280;51082;38.236;15.432;2023-01-15T05:08:46;101861.16;;;13.51
64296;BMP280;51082;38.236;15.432;2023-01-15T05:09:49;101861.22;;;13.43
64296;BMP280;51082;38.236;15.432;2023-01-15T05:10:53;101854.28;;;13.35
64296;BMP280;51082;38.236;15.432;2023-01-15T05:11:54;101869.97;;;13.35
64296;BMP280;51082;38.236;15.432;2023-01-15T05:12:56;101874.03;;;13.38
64296;BMP280;51082;38.236;15.432;2023-01-15T05:13:57;101869.06;;;13.43
64296;BMP280;51082;38.236;15.432;2023-01-15T05:14:59;101862.75;;;13.37
64296;BMP280;51082;38.236;15.432;2023-01-15T05:16:10;101864.91;;;13.34
64296;BMP280;51082;38.236;15.432;2023-01-15T05:17:13;101868.22;;;13.28
64296;BMP280;51082;38.236;15.432;2023-01-15T05:18:14;101871.72;;;13.20
64296;BMP280;51082;38.236;15.432;2023-01-15T05:19:18;101872.91;;;13.17
64296;BMP280;51082;38.236;15.432;2023-01-15T05:20:19;101870.56;;;13.23
64296;BMP280;51082;38.236;15.432;2023-01-15T05:21:22;101873.88;;;13.16
64296;BMP280;51082;38.236;15.432;2023-01-15T05:22:23;101870.13;;;13.19
64296;BMP280;51082;38.236;15.432;2023-01-15T05:23:25;101876.50;;;13.16
64296;BMP280;51082;38.236;15.432;2023-01-15T05:24:26;101869.00;;;13.13
64296;BMP280;51082;38.236;15.432;2023-01-15T05:25:29;101867.22;;;13.14
64296;BMP280;51082;38.236;15.432;2023-01-15T05:26:30;101861.03;;;13.07
64296;BMP280;51082;38.236;15.432;2023-01-15T05:27:33;101875.13;;;13.06
64296;BMP280;51082;38.236;15.432;2023-01-15T05:28:34;101867.47;;;13.04
64296;BMP280;51082;38.236;15.432;2023-01-15T05:29:36;101866.16;;;13.00
64296;BMP280;51082;38.236;15.432;2023-01-15T05:30:38;101874.56;;;12.96
64296;BMP280;51082;38.236;15.432;2023-01-15T05:31:39;101867.84;;;12.93
64296;BMP280;51082;38.236;15.432;2023-01-15T05:32:44;101856.31;;;12.87
64296;BMP280;51082;38.236;15.432;2023-01-15T05:33:46;101868.91;;;12.84
64296;BMP280;51082;38.236;15.432;2023-01-15T05:34:50;101865.81;;;12.80
64296;BMP280;51082;38.236;15.432;2023-01-15T05:35:52;101866.63;;;12.81
64296;BMP280;51082;38.236;15.432;2023-01-15T05:36:53;101861.59;;;12.79
64296;BMP280;51082;38.236;15.432;2023-01-15T05:37:56;101862.38;;;12.80
64296;BMP280;51082;38.236;15.432;2023-01-15T05:38:57;101866.63;;;12.81
64296;BMP280;51082;38.236;15.432;2023-01-15T05:40:01;101875.81;;;12.77
64296;BMP280;51082;38.236;15.432;2023-01-15T05:41:02;101870.56;;;12.77
64296;BMP280;51082;38.236;15.432;2023-01-15T05:42:24;101876.47;;;12.79
64296;BMP280;51082;38.236;15.432;2023-01-15T05:43:26;101867.97;;;12.77
64296;BMP280;51082;38.236;15.432;2023-01-15T05:44:28;101867.34;;;12.75
64296;BMP280;51082;38.236;15.432;2023-01-15T05:45:30;101872.56;;;12.75
64296;BMP280;51082;38.236;15.432;2023-01-15T05:46:35;101863.16;;;12.66
64296;BMP280;51082;38.236;15.432;2023-01-15T05:47:36;101872.44;;;12.68
64296;BMP280;51082;38.236;15.432;2023-01-15T05:48:39;101870.38;;;12.64
64296;BMP280;51082;38.236;15.432;2023-01-15T05:49:40;101868.78;;;12.54
64296;BMP280;51082;38.236;15.432;2023-01-15T05:50:43;101868.78;;;12.54
64296;BMP280;51082;38.236;15.432;2023-01-15T05:51:45;101870.94;;;12.51
64296;BMP280;51082;38.236;15.432;2023-01-15T05:52:47;101872.88;;;12.49
64296;BMP280;51082;38.236;15.432;2023-01-15T05:53:49;101875.66;;;12.47
64296;BMP280;51082;38.236;15.432;2023-01-15T05:54:51;101881.22;;;12.44
64296;BMP280;51082;38.236;15.432;2023-01-15T05:55:53;101869.97;;;12.44
64296;BMP280;51082;38.236;15.432;2023-01-15T05:56:54;101883.84;;;12.44
64296;BMP280;51082;38.236;15.432;2023-01-15T05:57:57;101878.44;;;12.46